createdAt,value
2022-11-19T19:34:32.343Z,2.20
2022-11-19T19:36:59.088Z,1.90
2022-11-19T19:39:26.349Z,2.03
2022-11-19T19:41:53.363Z,2.30
2022-11-19T19:44:19.997Z,2.00
2022-11-19T19:46:49.743Z,2.00
2022-11-19T19:49:16.801Z,2.03
2022-11-19T19:51:43.551Z,1.73
2022-11-19T19:54:10.177Z,1.93
2022-11-19T19:56:37.267Z,1.97
2022-11-19T19:59:04.082Z,2.20
2022-11-19T20:01:32.891Z,2.10
2022-11-19T20:04:02.007Z,2.60
2022-11-19T20:06:29.585Z,2.20
2022-11-19T20:08:56.361Z,1.90
2022-11-19T20:11:27.669Z,1.93
2022-11-19T20:14:02.692Z,2.03
2022-11-19T20:16:34.274Z,1.80
2022-11-19T20:19:01.789Z,1.70
2022-11-19T20:21:34.212Z,1.87
2022-11-19T20:24:03.937Z,1.47
2022-11-19T20:26:32.819Z,1.70
2022-11-19T20:29:05.999Z,2.07
2022-11-19T20:31:33.774Z,2.23
2022-11-19T20:34:02.721Z,2.20
2022-11-19T20:36:31.149Z,1.93
2022-11-19T20:38:57.853Z,2.03
2022-11-19T20:41:44.591Z,2.10
2022-11-19T20:44:23.167Z,1.87
2022-11-19T20:46:58.285Z,2.07
2022-11-19T20:49:27.922Z,1.90
2022-11-19T20:51:55.934Z,1.60
2022-11-19T20:54:23.759Z,2.30
2022-11-19T20:56:52.069Z,2.23
2022-11-19T20:59:19.594Z,2.47
2022-11-19T21:01:51.453Z,2.57
2022-11-19T21:04:19.831Z,2.03
2022-11-19T21:06:47.821Z,2.37
2022-11-19T21:09:16.185Z,1.90
2022-11-19T21:11:43.947Z,1.70
2022-11-19T21:14:11.608Z,1.93
2022-11-19T21:16:38.790Z,2.10
2022-11-19T21:19:05.660Z,2.07
2022-11-19T21:21:32.388Z,2.00
2022-11-19T21:23:59.212Z,2.30
2022-11-19T21:26:27.834Z,2.50
2022-11-19T21:28:57.410Z,1.57
2022-11-19T21:31:40.782Z,1.77
2022-11-19T21:34:09.939Z,1.60
2022-11-19T21:36:37.424Z,1.93
2022-11-19T21:39:05.322Z,1.80
2022-11-19T21:41:32.753Z,1.87
2022-11-19T21:43:59.443Z,1.47
2022-11-19T21:46:26.234Z,1.90
2022-11-19T21:48:53.993Z,1.77
2022-11-19T21:51:24.528Z,1.33
2022-11-19T21:53:58.312Z,1.57
2022-11-19T21:56:26.914Z,1.83
2022-11-19T21:58:53.595Z,1.63
2022-11-19T22:01:20.502Z,1.50
2022-11-19T22:03:47.689Z,1.30
2022-11-19T22:06:14.401Z,1.20
2022-11-19T22:08:42.373Z,1.53
2022-11-19T22:11:28.931Z,1.63
2022-11-19T22:14:07.011Z,1.57
2022-11-19T22:16:36.705Z,1.67
2022-11-19T22:19:05.627Z,1.50
2022-11-19T22:21:32.702Z,1.30
2022-11-19T22:23:59.547Z,1.27
2022-11-19T22:26:26.667Z,1.20
2022-11-19T22:28:53.810Z,1.20
2022-11-19T22:31:20.551Z,1.60
2022-11-19T22:33:51.832Z,1.23
2022-11-19T22:36:20.120Z,1.00
2022-11-19T22:38:46.801Z,0.90
2022-11-19T22:41:16.015Z,0.93
2022-11-19T22:43:43.404Z,1.10
2022-11-19T22:46:13.004Z,0.90
2022-11-19T22:48:40.593Z,0.90
2022-11-19T22:51:11.128Z,1.23
2022-11-19T22:53:38.336Z,1.60
2022-11-19T22:56:07.495Z,0.93
2022-11-19T22:58:36.333Z,1.20
2022-11-19T23:01:03.875Z,1.30
2022-11-19T23:03:30.817Z,0.77
2022-11-19T23:05:59.360Z,1.10
2022-11-19T23:08:26.283Z,0.90
2022-11-19T23:11:01.624Z,1.00
2022-11-19T23:13:33.603Z,0.70
2022-11-19T23:16:12.047Z,0.90
2022-11-19T23:18:46.606Z,1.13
2022-11-19T23:21:16.229Z,0.87
2022-11-19T23:23:43.055Z,1.17
2022-11-19T23:26:11.870Z,1.20
2022-11-19T23:28:39.111Z,0.93
2022-11-19T23:31:07.697Z,0.80
2022-11-19T23:33:34.422Z,1.00
2022-11-19T23:36:06.230Z,1.17
2022-11-19T23:38:34.647Z,1.00
2022-11-19T23:41:02.099Z,0.77
2022-11-19T23:43:29.245Z,1.00
2022-11-19T23:46:02.978Z,0.90
2022-11-19T23:48:30.814Z,1.10
2022-11-19T23:51:06.156Z,1.07
2022-11-19T23:53:33.409Z,1.20
2022-11-19T23:56:00.668Z,0.80
2022-11-19T23:58:27.729Z,0.70
